Portada
METAR-TAF:

METAR-TAF

Aeroports :

Owatonna Degner Regional Airport

Owatonna, Minnesota, Estats Units d'Amèrica

latitud: 44-07N, longitud: 093-15W, altitud: 350 m

Observació

L'informe es va fer fa 17 minuts, a les 17:10 UTC
Vent 7 kt del Est/Nord-Est
Temperatura 12°C
Humitat 71%
Pressió 1024 hPa
Visibilitat: 16.1 km
Núvols disperses a una alçada de 1900 ft

METAR: KOWA 201710Z AUTO 07007KT 10SM SCT019 12/07 A3023 RMK AO2

Hora: 12:27 (17:27 UTC)


TAF: manca

Observacions i pronòstics meteorològics de més de 4000 aeroports (METAR i TAF).

Les estacions disponibles són els punts grocs i vermells al mapa.

Posi el ratolí al punt desitjat per veure el nom de l'estació.

Feu clic per veure les observacions i els pronòstics meteorològics.

Per canviar el mapa: feu clic els botons verds amb una creu de color negre per apropar; al botó verd amb un guió per allunyar la imatge; o en les fletxes verdes per a mapes adjacents.


METAR-TAF: